• Join FlightAware (Why Join?)
  • Login
  • US Flag 
01:57PM EDT


 

Airport Tracker/Info


-or-


 

Live Flight TrackerFlight Track Log ✈ JZA8754 ✈ 05-Sep-2013 ✈ CYVO - CYUL

Flight Track Log - Related Links

Times and Time Zones

All times are in EDT time to prevent confusion due to time zone crossing. See the JZA8754 flight status page for this flight to view local times or setup timezone preferences in your user account.

Time Position Orientation Groundspeed Altitude Reporting Facility
EDT Latitude Longitude Course Direction KTS MPH feet Rate Location/Type
09:06PM 47.7783 -77.3226 131° Southeast  Level Estimated
09:07PM 47.7359 -77.2528 132° Southeast  Level FlightAware Approximate
09:08PM 47.6934 -77.1832 132° Southeast  Level FlightAware Approximate
09:09PM 47.6506 -77.1141 133° Southeast  Level FlightAware Approximate
09:10PM 47.6077 -77.0453 133° Southeast  Level FlightAware Approximate
09:11PM 47.5647 -76.9765 133° Southeast  Level FlightAware Approximate
09:12PM 47.5216 -76.9079 133° Southeast  Level FlightAware Approximate
09:13PM 47.4790 -76.8387 132° Southeast  Level FlightAware Approximate
09:13PM 47.6500 -77.0167 131° Southeast 260 299 15,700  Level Montreal Center
09:14PM 47.4365 -76.7695 132° Southeast  Level FlightAware Approximate
09:14PM 47.6167 -76.9333 121° Southeast 230 265 16,500  Level Montreal Center
09:15PM 47.3939 -76.7004 132° Southeast  Level FlightAware Approximate
09:15PM 47.5667 -76.8833 146° Southeast 230 265 17,500  Level Montreal Center
09:16PM 47.3522 -76.6302 131° Southeast  Level FlightAware Approximate
09:16PM 47.5167 -76.8167 138° Southeast 230 265 18,200  Level Montreal Center
09:17PM 47.3108 -76.5597 131° Southeast  Level FlightAware Approximate
09:17PM 47.4833 -76.7333 121° Southeast 230 265 18,900  Level Montreal Center
09:18PM 47.2694 -76.4893 131° Southeast  Level FlightAware Approximate
09:18PM 47.4333 -76.6833 146° Southeast 230 265 19,700  Level Montreal Center
09:19PM 47.4000 -76.6167 126° Southeast 240 276 20,500 660 Climbing Montreal Center
09:20PM 47.3500 -76.5333 132° Southeast 230 265 21,100 600 Climbing Montreal Center
09:21PM 47.3000 -76.4667 138° Southeast 240 276 21,800 600 Climbing Montreal Center
09:22PM 47.2500 -76.4167 146° Southeast 230 265 22,400 600 Climbing Montreal Center
09:23PM 47.2167 -76.3167 116° Southeast 240 276 23,000 300 Climbing Montreal Center
09:24PM 47.1667 -76.2667 146° Southeast 240 276 23,000  Level Montreal Center
09:25PM 47.1000 -76.1667 134° Southeast 270 311 23,000  Level Montreal Center
09:26PM 47.0500 -76.0833 131° Southeast 280 322 23,000  Level Montreal Center
09:27PM 47.0000 -76.0000 131° Southeast 290 334 23,000  Level Montreal Center
09:28PM 46.9500 -75.9167 131° Southeast 280 322 23,000  Level Montreal Center
09:29PM 46.8833 -75.8500 146° Southeast 290 334 23,000  Level Montreal Center
09:30PM 46.8333 -75.7500 126° Southeast 290 334 23,000  Level Montreal Center
09:31PM 46.7833 -75.6667 131° Southeast 290 334 23,000  Level Montreal Center
09:32PM 46.7167 -75.5833 139° Southeast 290 334 23,000 -300 Level Montreal Center
09:33PM 46.6667 -75.4833 126° Southeast 300 345 22,400 -600 Descending Montreal Center
09:34PM 46.6167 -75.4000 131° Southeast 310 357 21,800 -600 Descending Montreal Center
09:35PM 46.5500 -75.3167 139° Southeast 310 357 21,200 -600 Descending Montreal Center
09:36PM 46.5000 -75.2167 126° Southeast 310 357 20,600 -600 Descending Montreal Center
09:37PM 46.4333 -75.1167 134° Southeast 310 357 20,000 -600 Descending Montreal Center
09:38PM 46.3833 -75.0167 126° Southeast 310 357 19,400 -600 Descending Montreal Center
09:39PM 46.3333 -74.9500 137° Southeast 310 357 18,900 -720 Descending Montreal Center
09:40PM 46.2500 -74.8500 140° Southeast 310 357 18,000 -900 Descending Montreal Center
09:41PM 46.2000 -74.7500 126° Southeast 320 368 17,100 -1,080 Descending Montreal Center
09:42PM 46.1333 -74.6333 129° Southeast 330 380 15,900 -1,200 Descending Montreal Center
09:43PM 46.0667 -74.5667 145° Southeast 330 380 14,700 -1,200 Descending Montreal Center
09:44PM 46.0167 -74.4667 126° Southeast 300 345 13,600 -1,020 Descending Montreal Center
09:45PM 45.9500 -74.4000 145° Southeast 290 334 12,700 -960 Descending Montreal Center
09:46PM 45.9000 -74.3333 137° Southeast 280 322 11,700 -1,080 Descending Montreal Center
09:47PM 45.8333 -74.2667 145° Southeast 280 322 10,600 -900 Descending Montreal Center
09:48PM 45.7833 -74.1833 131° Southeast 270 311 10,000 -600 Descending Montreal Center
09:49PM 45.7333 -74.1000 131° Southeast 260 299 9,400 -600 Descending Montreal Center
09:50PM 45.7000 -74.0167 120° Southeast 250 288 8,900 -600 Descending Montreal Center
09:51PM 45.6500 -73.9333 131° Southeast 250 288 8,200 -900 Descending Montreal Center
09:52PM 45.6500 -73.8333 90° East 250 288 7,200 -1,440 Descending Montreal Center
09:53PM 45.6333 -73.7333 103° East 250 288 5,400 -1,920 Descending Montreal Center
09:54PM 45.6000 -73.6667 126° Southeast 240 276 3,400 -1,500 Descending Montreal Center
09:55PM 45.5500 -73.6167 145° Southeast 170 196 2,400 -1,200 Descending Montreal Center
09:56PM 45.5167 -73.6667 226° Southwest 160 184 1,100 -1,020 Descending Montreal Center
09:57PM 45.4833 -73.7167 226° Southwest 130 150 400 -540 Descending Montreal Center
09:58PM 45.4667 -73.7500 235° Southwest 60 69 100 -180 Descending Montreal Center
09:59PM 45.4500 -73.7500 180° South 20 23 100  Level Montreal Center
10:00PM 45.4500 -73.7500 180° South 10 12 100  Level Montreal Center
10:01PM 45.4500 -73.7167 90° East 20 23 100  Level Montreal Center